sensor_id;sensor_type;location;lat;lon;timestamp;P1;durP1;ratioP1;P2;durP2;ratioP2
15816;SDS011;8009;50.070;8.232;2023-03-20T00:02:07;11.30;;;10.90;;
15816;SDS011;8009;50.070;8.232;2023-03-20T00:04:44;12.40;;;11.93;;
15816;SDS011;8009;50.070;8.232;2023-03-20T00:07:15;11.37;;;10.97;;
15816;SDS011;8009;50.070;8.232;2023-03-20T00:09:43;13.73;;;13.23;;
15816;SDS011;8009;50.070;8.232;2023-03-20T00:12:13;10.37;;;9.97;;
15816;SDS011;8009;50.070;8.232;2023-03-20T00:14:44;12.90;;;12.40;;
15816;SDS011;8009;50.070;8.232;2023-03-20T00:17:13;10.90;;;10.50;;
15816;SDS011;8009;50.070;8.232;2023-03-20T00:19:47;11.97;;;11.57;;
15816;SDS011;8009;50.070;8.232;2023-03-20T00:22:18;13.43;;;12.93;;
15816;SDS011;8009;50.070;8.232;2023-03-20T00:24:46;11.07;;;10.67;;
15816;SDS011;8009;50.070;8.232;2023-03-20T00:27:15;10.10;;;9.70;;
15816;SDS011;8009;50.070;8.232;2023-03-20T00:29:45;11.60;;;11.20;;
15816;SDS011;8009;50.070;8.232;2023-03-20T00:32:13;10.53;;;10.13;;
15816;SDS011;8009;50.070;8.232;2023-03-20T00:34:42;10.97;;;10.57;;
15816;SDS011;8009;50.070;8.232;2023-03-20T00:37:10;10.90;;;10.50;;
15816;SDS011;8009;50.070;8.232;2023-03-20T00:39:41;11.50;;;11.10;;
15816;SDS011;8009;50.070;8.232;2023-03-20T00:42:12;10.20;;;9.80;;
15816;SDS011;8009;50.070;8.232;2023-03-20T00:44:48;11.37;;;10.97;;
15816;SDS011;8009;50.070;8.232;2023-03-20T00:47:23;11.00;;;10.60;;
15816;SDS011;8009;50.070;8.232;2023-03-20T00:49:52;11.73;;;11.33;;
15816;SDS011;8009;50.070;8.232;2023-03-20T00:52:22;14.37;;;13.87;;
15816;SDS011;8009;50.070;8.232;2023-03-20T00:54:53;12.27;;;11.83;;
15816;SDS011;8009;50.070;8.232;2023-03-20T00:57:22;11.27;;;10.87;;
15816;SDS011;8009;50.070;8.232;2023-03-20T00:59:54;13.50;;;13.00;;
15816;SDS011;8009;50.070;8.232;2023-03-20T01:02:26;12.10;;;11.70;;
15816;SDS011;8009;50.070;8.232;2023-03-20T01:04:56;12.13;;;11.70;;
15816;SDS011;8009;50.070;8.232;2023-03-20T01:07:25;11.50;;;11.10;;
15816;SDS011;8009;50.070;8.232;2023-03-20T01:09:56;12.27;;;11.87;;
15816;SDS011;8009;50.070;8.232;2023-03-20T01:12:24;12.70;;;12.20;;
15816;SDS011;8009;50.070;8.232;2023-03-20T01:14:53;12.83;;;12.33;;
15816;SDS011;8009;50.070;8.232;2023-03-20T01:17:24;11.13;;;10.73;;
15816;SDS011;8009;50.070;8.232;2023-03-20T01:19:54;13.80;;;13.30;;
15816;SDS011;8009;50.070;8.232;2023-03-20T01:22:22;13.00;;;12.50;;
15816;SDS011;8009;50.070;8.232;2023-03-20T01:24:50;11.27;;;10.87;;
15816;SDS011;8009;50.070;8.232;2023-03-20T01:27:21;11.20;;;10.80;;
15816;SDS011;8009;50.070;8.232;2023-03-20T01:29:51;11.90;;;11.50;;
15816;SDS011;8009;50.070;8.232;2023-03-20T01:32:20;10.37;;;9.97;;
15816;SDS011;8009;50.070;8.232;2023-03-20T01:34:48;11.90;;;11.50;;
15816;SDS011;8009;50.070;8.232;2023-03-20T01:37:19;12.00;;;11.60;;
15816;SDS011;8009;50.070;8.232;2023-03-20T01:39:54;11.67;;;11.27;;
15816;SDS011;8009;50.070;8.232;2023-03-20T01:42:25;11.70;;;11.30;;
15816;SDS011;8009;50.070;8.232;2023-03-20T01:44:54;13.17;;;12.67;;
15816;SDS011;8009;50.070;8.232;2023-03-20T01:47:23;11.60;;;11.20;;
15816;SDS011;8009;50.070;8.232;2023-03-20T01:52:46;10.27;;;9.87;;
15816;SDS011;8009;50.070;8.232;2023-03-20T01:55:18;11.80;;;11.40;;
15816;SDS011;8009;50.070;8.232;2023-03-20T01:57:53;11.20;;;10.80;;
15816;SDS011;8009;50.070;8.232;2023-03-20T02:00:25;13.93;;;13.43;;
15816;SDS011;8009;50.070;8.232;2023-03-20T02:02:54;11.30;;;10.90;;
15816;SDS011;8009;50.070;8.232;2023-03-20T02:05:24;12.67;;;12.17;;
15816;SDS011;8009;50.070;8.232;2023-03-20T02:07:55;11.93;;;11.53;;
15816;SDS011;8009;50.070;8.232;2023-03-20T02:10:29;10.23;;;9.83;;
15816;SDS011;8009;50.070;8.232;2023-03-20T02:13:00;11.87;;;11.47;;
15816;SDS011;8009;50.070;8.232;2023-03-20T02:15:30;11.60;;;11.20;;
15816;SDS011;8009;50.070;8.232;2023-03-20T02:17:59;11.20;;;10.80;;
15816;SDS011;8009;50.070;8.232;2023-03-20T02:20:33;11.60;;;11.20;;
15816;SDS011;8009;50.070;8.232;2023-03-20T02:23:23;10.83;;;10.43;;
15816;SDS011;8009;50.070;8.232;2023-03-20T02:26:16;11.23;;;10.83;;
15816;SDS011;8009;50.070;8.232;2023-03-20T02:29:06;10.17;;;9.77;;
15816;SDS011;8009;50.070;8.232;2023-03-20T02:32:05;11.73;;;11.33;;
15816;SDS011;8009;50.070;8.232;2023-03-20T02:35:05;11.77;;;11.37;;
15816;SDS011;8009;50.070;8.232;2023-03-20T02:37:58;11.07;;;10.67;;
15816;SDS011;8009;50.070;8.232;2023-03-20T02:40:46;12.93;;;12.43;;
15816;SDS011;8009;50.070;8.232;2023-03-20T02:43:21;11.83;;;11.43;;
15816;SDS011;8009;50.070;8.232;2023-03-20T02:45:55;11.37;;;10.97;;
15816;SDS011;8009;50.070;8.232;2023-03-20T02:48:32;11.60;;;11.20;;
15816;SDS011;8009;50.070;8.232;2023-03-20T02:51:11;11.83;;;11.43;;
15816;SDS011;8009;50.070;8.232;2023-03-20T02:53:50;11.70;;;11.30;;
15816;SDS011;8009;50.070;8.232;2023-03-20T02:56:23;10.80;;;10.40;;
15816;SDS011;8009;50.070;8.232;2023-03-20T02:58:59;11.87;;;11.47;;
15816;SDS011;8009;50.070;8.232;2023-03-20T03:01:34;12.20;;;11.70;;
15816;SDS011;8009;50.070;8.232;2023-03-20T03:04:07;11.97;;;11.53;;
15816;SDS011;8009;50.070;8.232;2023-03-20T03:06:39;17.38;;;16.73;;
15816;SDS011;8009;50.070;8.232;2023-03-20T03:09:13;13.67;;;13.17;;
15816;SDS011;8009;50.070;8.232;2023-03-20T03:11:49;14.80;;;14.27;;
15816;SDS011;8009;50.070;8.232;2023-03-20T03:14:34;12.23;;;11.83;;
15816;SDS011;8009;50.070;8.232;2023-03-20T03:17:06;10.10;;;9.70;;
15816;SDS011;8009;50.070;8.232;2023-03-20T03:19:37;10.47;;;10.07;;
15816;SDS011;8009;50.070;8.232;2023-03-20T03:22:08;12.23;;;11.80;;
15816;SDS011;8009;50.070;8.232;2023-03-20T03:24:42;11.50;;;11.10;;
15816;SDS011;8009;50.070;8.232;2023-03-20T03:27:12;13.98;;;13.48;;
15816;SDS011;8009;50.070;8.232;2023-03-20T03:29:47;11.77;;;11.37;;
15816;SDS011;8009;50.070;8.232;2023-03-20T03:32:22;12.17;;;11.77;;
15816;SDS011;8009;50.070;8.232;2023-03-20T03:34:54;13.10;;;12.60;;
15816;SDS011;8009;50.070;8.232;2023-03-20T03:37:28;11.83;;;11.43;;
15816;SDS011;8009;50.070;8.232;2023-03-20T03:40:11;10.93;;;10.53;;
15816;SDS011;8009;50.070;8.232;2023-03-20T03:42:51;10.60;;;10.20;;
15816;SDS011;8009;50.070;8.232;2023-03-20T03:45:28;11.03;;;10.63;;
15816;SDS011;8009;50.070;8.232;2023-03-20T03:48:00;11.50;;;11.10;;
15816;SDS011;8009;50.070;8.232;2023-03-20T03:50:34;11.13;;;10.73;;
15816;SDS011;8009;50.070;8.232;2023-03-20T03:53:12;11.17;;;10.77;;
15816;SDS011;8009;50.070;8.232;2023-03-20T03:55:47;11.20;;;10.80;;
15816;SDS011;8009;50.070;8.232;2023-03-20T03:58:20;11.20;;;10.80;;
15816;SDS011;8009;50.070;8.232;2023-03-20T04:00:52;11.93;;;11.53;;
15816;SDS011;8009;50.070;8.232;2023-03-20T04:03:25;11.33;;;10.93;;
15816;SDS011;8009;50.070;8.232;2023-03-20T04:05:57;12.17;;;11.73;;
15816;SDS011;8009;50.070;8.232;2023-03-20T04:08:27;13.10;;;12.60;;
15816;SDS011;8009;50.070;8.232;2023-03-20T04:10:58;10.67;;;10.27;;
15816;SDS011;8009;50.070;8.232;2023-03-20T04:13:26;12.03;;;11.63;;
15816;SDS011;8009;50.070;8.232;2023-03-20T04:15:54;12.93;;;12.43;;
15816;SDS011;8009;50.070;8.232;2023-03-20T04:18:23;13.10;;;12.60;;
15816;SDS011;8009;50.070;8.232;2023-03-20T04:20:51;11.53;;;11.13;;
15816;SDS011;8009;50.070;8.232;2023-03-20T04:23:19;12.00;;;11.60;;
15816;SDS011;8009;50.070;8.232;2023-03-20T04:25:48;12.97;;;12.47;;
15816;SDS011;8009;50.070;8.232;2023-03-20T04:28:19;15.98;;;15.38;;
15816;SDS011;8009;50.070;8.232;2023-03-20T04:30:50;11.50;;;11.10;;
15816;SDS011;8009;50.070;8.232;2023-03-20T04:33:20;12.07;;;11.67;;
15816;SDS011;8009;50.070;8.232;2023-03-20T04:35:49;12.20;;;11.70;;
15816;SDS011;8009;50.070;8.232;2023-03-20T04:38:18;10.17;;;9.77;;
15816;SDS011;8009;50.070;8.232;2023-03-20T04:40:48;11.63;;;11.23;;
15816;SDS011;8009;50.070;8.232;2023-03-20T04:43:19;13.13;;;12.63;;
15816;SDS011;8009;50.070;8.232;2023-03-20T04:45:47;13.13;;;12.63;;
15816;SDS011;8009;50.070;8.232;2023-03-20T04:48:17;11.30;;;10.90;;
15816;SDS011;8009;50.070;8.232;2023-03-20T04:50:45;12.80;;;12.30;;
15816;SDS011;8009;50.070;8.232;2023-03-20T04:53:15;11.00;;;10.60;;
15816;SDS011;8009;50.070;8.232;2023-03-20T04:55:44;12.70;;;12.20;;
15816;SDS011;8009;50.070;8.232;2023-03-20T04:58:12;11.43;;;11.03;;
15816;SDS011;8009;50.070;8.232;2023-03-20T05:00:43;11.57;;;11.17;;
15816;SDS011;8009;50.070;8.232;2023-03-20T05:03:12;11.57;;;11.13;;
15816;SDS011;8009;50.070;8.232;2023-03-20T05:05:40;11.80;;;11.40;;
15816;SDS011;8009;50.070;8.232;2023-03-20T05:08:08;12.50;;;12.00;;
15816;SDS011;8009;50.070;8.232;2023-03-20T05:10:37;13.73;;;13.23;;
15816;SDS011;8009;50.070;8.232;2023-03-20T05:13:05;11.80;;;11.40;;
15816;SDS011;8009;50.070;8.232;2023-03-20T05:15:33;13.67;;;13.17;;
15816;SDS011;8009;50.070;8.232;2023-03-20T05:18:04;12.90;;;12.40;;
15816;SDS011;8009;50.070;8.232;2023-03-20T05:20:33;13.43;;;12.93;;
15816;SDS011;8009;50.070;8.232;2023-03-20T05:23:02;11.50;;;11.10;;
15816;SDS011;8009;50.070;8.232;2023-03-20T05:25:30;12.27;;;11.80;;
15816;SDS011;8009;50.070;8.232;2023-03-20T05:27:58;12.70;;;12.20;;
15816;SDS011;8009;50.070;8.232;2023-03-20T05:30:27;11.97;;;11.57;;
15816;SDS011;8009;50.070;8.232;2023-03-20T05:32:55;13.03;;;12.53;;
15816;SDS011;8009;50.070;8.232;2023-03-20T05:35:26;12.03;;;11.63;;
15816;SDS011;8009;50.070;8.232;2023-03-20T05:37:55;14.67;;;14.17;;
15816;SDS011;8009;50.070;8.232;2023-03-20T05:40:23;11.37;;;10.97;;
15816;SDS011;8009;50.070;8.232;2023-03-20T05:42:51;14.43;;;13.93;;
15816;SDS011;8009;50.070;8.232;2023-03-20T05:45:19;11.60;;;11.20;;
15816;SDS011;8009;50.070;8.232;2023-03-20T05:47:48;10.47;;;10.07;;
15816;SDS011;8009;50.070;8.232;2023-03-20T05:50:16;13.07;;;12.57;;
15816;SDS011;8009;50.070;8.232;2023-03-20T05:52:48;13.00;;;12.50;;
15816;SDS011;8009;50.070;8.232;2023-03-20T05:55:16;12.07;;;11.67;;
15816;SDS011;8009;50.070;8.232;2023-03-20T05:57:45;12.00;;;11.60;;
15816;SDS011;8009;50.070;8.232;2023-03-20T06:00:13;12.17;;;11.77;;
15816;SDS011;8009;50.070;8.232;2023-03-20T06:02:42;12.33;;;11.87;;
15816;SDS011;8009;50.070;8.232;2023-03-20T06:05:11;12.80;;;12.30;;
15816;SDS011;8009;50.070;8.232;2023-03-20T06:07:39;13.87;;;13.37;;
15816;SDS011;8009;50.070;8.232;2023-03-20T06:10:10;12.37;;;11.90;;
15816;SDS011;8009;50.070;8.232;2023-03-20T06:12:39;12.20;;;11.77;;
15816;SDS011;8009;50.070;8.232;2023-03-20T06:15:07;10.80;;;10.40;;
15816;SDS011;8009;50.070;8.232;2023-03-20T06:17:36;13.20;;;12.70;;
15816;SDS011;8009;50.070;8.232;2023-03-20T06:20:07;12.50;;;12.00;;
15816;SDS011;8009;50.070;8.232;2023-03-20T06:22:36;11.53;;;11.13;;
15816;SDS011;8009;50.070;8.232;2023-03-20T06:25:05;12.53;;;12.07;;
15816;SDS011;8009;50.070;8.232;2023-03-20T06:27:37;11.03;;;10.63;;
15816;SDS011;8009;50.070;8.232;2023-03-20T06:30:06;11.77;;;11.37;;
15816;SDS011;8009;50.070;8.232;2023-03-20T06:32:36;10.47;;;10.07;;
15816;SDS011;8009;50.070;8.232;2023-03-20T06:35:06;10.87;;;10.47;;
15816;SDS011;8009;50.070;8.232;2023-03-20T06:37:35;12.80;;;12.30;;
15816;SDS011;8009;50.070;8.232;2023-03-20T06:40:04;11.83;;;11.43;;
15816;SDS011;8009;50.070;8.232;2023-03-20T06:42:36;11.37;;;10.97;;
15816;SDS011;8009;50.070;8.232;2023-03-20T06:45:05;11.20;;;10.80;;
15816;SDS011;8009;50.070;8.232;2023-03-20T06:47:36;12.40;;;11.93;;
15816;SDS011;8009;50.070;8.232;2023-03-20T06:50:05;10.97;;;10.57;;
15816;SDS011;8009;50.070;8.232;2023-03-20T06:52:34;10.90;;;10.50;;
15816;SDS011;8009;50.070;8.232;2023-03-20T06:55:03;12.00;;;11.60;;
15816;SDS011;8009;50.070;8.232;2023-03-20T06:57:31;11.13;;;10.73;;
15816;SDS011;8009;50.070;8.232;2023-03-20T07:00:03;10.67;;;10.27;;
15816;SDS011;8009;50.070;8.232;2023-03-20T07:02:32;13.00;;;12.50;;
15816;SDS011;8009;50.070;8.232;2023-03-20T07:05:00;13.77;;;13.27;;
15816;SDS011;8009;50.070;8.232;2023-03-20T07:07:28;10.47;;;10.07;;
15816;SDS011;8009;50.070;8.232;2023-03-20T07:09:57;13.43;;;12.93;;
15816;SDS011;8009;50.070;8.232;2023-03-20T07:12:25;13.85;;;13.35;;
15816;SDS011;8009;50.070;8.232;2023-03-20T07:14:56;12.90;;;12.40;;
15816;SDS011;8009;50.070;8.232;2023-03-20T07:17:27;12.30;;;11.80;;
15816;SDS011;8009;50.070;8.232;2023-03-20T07:19:55;11.27;;;10.87;;
15816;SDS011;8009;50.070;8.232;2023-03-20T07:22:24;11.87;;;11.43;;
15816;SDS011;8009;50.070;8.232;2023-03-20T07:24:55;12.67;;;12.17;;
15816;SDS011;8009;50.070;8.232;2023-03-20T07:27:23;10.57;;;10.17;;
15816;SDS011;8009;50.070;8.232;2023-03-20T07:29:52;17.20;;;16.50;;
15816;SDS011;8009;50.070;8.232;2023-03-20T07:32:20;11.20;;;10.80;;
15816;SDS011;8009;50.070;8.232;2023-03-20T07:34:51;13.60;;;13.10;;
15816;SDS011;8009;50.070;8.232;2023-03-20T07:37:19;12.83;;;12.33;;
15816;SDS011;8009;50.070;8.232;2023-03-20T07:39:48;12.13;;;11.70;;
15816;SDS011;8009;50.070;8.232;2023-03-20T07:42:16;12.40;;;11.93;;
15816;SDS011;8009;50.070;8.232;2023-03-20T07:44:45;14.80;;;14.27;;
15816;SDS011;8009;50.070;8.232;2023-03-20T07:47:13;11.90;;;11.50;;
15816;SDS011;8009;50.070;8.232;2023-03-20T07:49:41;13.07;;;12.57;;
15816;SDS011;8009;50.070;8.232;2023-03-20T07:52:13;12.63;;;12.13;;
15816;SDS011;8009;50.070;8.232;2023-03-20T07:54:42;13.17;;;12.67;;
15816;SDS011;8009;50.070;8.232;2023-03-20T07:57:10;13.10;;;12.60;;
15816;SDS011;8009;50.070;8.232;2023-03-20T07:59:38;13.07;;;12.57;;
15816;SDS011;8009;50.070;8.232;2023-03-20T08:02:08;12.60;;;12.10;;
15816;SDS011;8009;50.070;8.232;2023-03-20T08:04:41;14.17;;;13.67;;
15816;SDS011;8009;50.070;8.232;2023-03-20T08:07:13;13.33;;;12.83;;
15816;SDS011;8009;50.070;8.232;2023-03-20T08:09:41;13.00;;;12.50;;
15816;SDS011;8009;50.070;8.232;2023-03-20T08:12:09;12.40;;;11.90;;
15816;SDS011;8009;50.070;8.232;2023-03-20T08:14:38;13.13;;;12.67;;
15816;SDS011;8009;50.070;8.232;2023-03-20T08:17:07;15.57;;;14.97;;
15816;SDS011;8009;50.070;8.232;2023-03-20T08:19:36;13.57;;;13.07;;
15816;SDS011;8009;50.070;8.232;2023-03-20T08:22:05;11.70;;;11.30;;
15816;SDS011;8009;50.070;8.232;2023-03-20T08:24:35;13.67;;;13.17;;
15816;SDS011;8009;50.070;8.232;2023-03-20T08:27:04;13.20;;;12.70;;
15816;SDS011;8009;50.070;8.232;2023-03-20T08:29:32;10.63;;;10.23;;
15816;SDS011;8009;50.070;8.232;2023-03-20T08:32:01;11.40;;;11.00;;
15816;SDS011;8009;50.070;8.232;2023-03-20T08:34:29;16.35;;;15.75;;
15816;SDS011;8009;50.070;8.232;2023-03-20T08:36:59;16.10;;;15.50;;
15816;SDS011;8009;50.070;8.232;2023-03-20T08:39:29;11.37;;;10.97;;
15816;SDS011;8009;50.070;8.232;2023-03-20T08:42:00;11.73;;;11.33;;
15816;SDS011;8009;50.070;8.232;2023-03-20T08:44:28;14.93;;;14.33;;
15816;SDS011;8009;50.070;8.232;2023-03-20T08:46:57;12.33;;;11.87;;
15816;SDS011;8009;50.070;8.232;2023-03-20T08:49:25;12.80;;;12.30;;
15816;SDS011;8009;50.070;8.232;2023-03-20T08:51:57;12.43;;;11.93;;
15816;SDS011;8009;50.070;8.232;2023-03-20T08:54:26;12.53;;;12.03;;
15816;SDS011;8009;50.070;8.232;2023-03-20T08:56:54;15.00;;;14.40;;
15816;SDS011;8009;50.070;8.232;2023-03-20T08:59:26;16.57;;;15.97;;
15816;SDS011;8009;50.070;8.232;2023-03-20T09:01:55;13.17;;;12.67;;
15816;SDS011;8009;50.070;8.232;2023-03-20T09:04:23;15.73;;;15.13;;
15816;SDS011;8009;50.070;8.232;2023-03-20T09:06:52;15.40;;;14.80;;
15816;SDS011;8009;50.070;8.232;2023-03-20T09:09:25;14.03;;;13.53;;
15816;SDS011;8009;50.070;8.232;2023-03-20T09:11:53;13.63;;;13.13;;
15816;SDS011;8009;50.070;8.232;2023-03-20T09:14:31;12.77;;;12.27;;
15816;SDS011;8009;50.070;8.232;2023-03-20T09:17:00;11.83;;;11.43;;
15816;SDS011;8009;50.070;8.232;2023-03-20T09:19:28;13.60;;;13.10;;
15816;SDS011;8009;50.070;8.232;2023-03-20T09:21:57;15.50;;;14.90;;
15816;SDS011;8009;50.070;8.232;2023-03-20T09:24:25;14.27;;;13.77;;
15816;SDS011;8009;50.070;8.232;2023-03-20T09:26:54;14.03;;;13.53;;
15816;SDS011;8009;50.070;8.232;2023-03-20T09:29:22;15.30;;;14.70;;
15816;SDS011;8009;50.070;8.232;2023-03-20T09:31:54;14.43;;;13.90;;
15816;SDS011;8009;50.070;8.232;2023-03-20T09:34:22;14.57;;;14.03;;
15816;SDS011;8009;50.070;8.232;2023-03-20T09:36:51;14.50;;;13.90;;
15816;SDS011;8009;50.070;8.232;2023-03-20T09:39:20;15.37;;;14.77;;
15816;SDS011;8009;50.070;8.232;2023-03-20T09:41:48;19.43;;;18.67;;
15816;SDS011;8009;50.070;8.232;2023-03-20T09:44:21;20.73;;;19.90;;
15816;SDS011;8009;50.070;8.232;2023-03-20T09:47:21;16.77;;;16.17;;
15816;SDS011;8009;50.070;8.232;2023-03-20T09:50:02;18.93;;;18.23;;
15816;SDS011;8009;50.070;8.232;2023-03-20T09:52:48;15.50;;;14.93;;
15816;SDS011;8009;50.070;8.232;2023-03-20T09:55:24;15.43;;;14.83;;
15816;SDS011;8009;50.070;8.232;2023-03-20T09:58:01;13.83;;;13.33;;
15816;SDS011;8009;50.070;8.232;2023-03-20T10:00:33;17.23;;;16.60;;
15816;SDS011;8009;50.070;8.232;2023-03-20T10:03:05;17.23;;;16.60;;
15816;SDS011;8009;50.070;8.232;2023-03-20T10:05:45;19.13;;;18.43;;
15816;SDS011;8009;50.070;8.232;2023-03-20T10:08:17;20.57;;;19.77;;
15816;SDS011;8009;50.070;8.232;2023-03-20T10:10:54;17.37;;;16.73;;
15816;SDS011;8009;50.070;8.232;2023-03-20T10:13:38;17.87;;;17.17;;
15816;SDS011;8009;50.070;8.232;2023-03-20T10:16:18;18.87;;;18.17;;
15816;SDS011;8009;50.070;8.232;2023-03-20T10:18:59;18.77;;;18.08;;
15816;SDS011;8009;50.070;8.232;2023-03-20T10:21:35;16.83;;;16.23;;
15816;SDS011;8009;50.070;8.232;2023-03-20T10:24:10;18.30;;;17.60;;
15816;SDS011;8009;50.070;8.232;2023-03-20T10:26:43;17.60;;;16.90;;
15816;SDS011;8009;50.070;8.232;2023-03-20T10:29:20;18.83;;;18.13;;
15816;SDS011;8009;50.070;8.232;2023-03-20T10:31:55;16.90;;;16.30;;
15816;SDS011;8009;50.070;8.232;2023-03-20T10:34:34;16.57;;;15.97;;
15816;SDS011;8009;50.070;8.232;2023-03-20T10:37:17;18.27;;;17.57;;
15816;SDS011;8009;50.070;8.232;2023-03-20T10:39:59;16.37;;;15.77;;
15816;SDS011;8009;50.070;8.232;2023-03-20T10:42:41;15.70;;;15.10;;
15816;SDS011;8009;50.070;8.232;2023-03-20T10:45:17;14.27;;;13.77;;
15816;SDS011;8009;50.070;8.232;2023-03-20T10:47:57;18.73;;;18.03;;
15816;SDS011;8009;50.070;8.232;2023-03-20T10:50:34;15.80;;;15.20;;
15816;SDS011;8009;50.070;8.232;2023-03-20T10:53:09;14.50;;;14.00;;
15816;SDS011;8009;50.070;8.232;2023-03-20T10:55:47;15.27;;;14.67;;
15816;SDS011;8009;50.070;8.232;2023-03-20T10:58:17;17.67;;;16.97;;
15816;SDS011;8009;50.070;8.232;2023-03-20T11:00:50;17.07;;;16.47;;
15816;SDS011;8009;50.070;8.232;2023-03-20T11:03:22;15.63;;;15.03;;
15816;SDS011;8009;50.070;8.232;2023-03-20T11:05:56;18.00;;;17.30;;
15816;SDS011;8009;50.070;8.232;2023-03-20T11:08:30;18.33;;;17.63;;
15816;SDS011;8009;50.070;8.232;2023-03-20T11:11:02;15.73;;;15.13;;
15816;SDS011;8009;50.070;8.232;2023-03-20T11:13:32;16.07;;;15.47;;
15816;SDS011;8009;50.070;8.232;2023-03-20T11:18:47;14.95;;;14.38;;
15816;SDS011;8009;50.070;8.232;2023-03-20T11:21:21;15.40;;;14.80;;
15816;SDS011;8009;50.070;8.232;2023-03-20T11:23:54;15.50;;;14.90;;
15816;SDS011;8009;50.070;8.232;2023-03-20T11:26:29;16.10;;;15.50;;
15816;SDS011;8009;50.070;8.232;2023-03-20T11:29:01;15.90;;;15.30;;
15816;SDS011;8009;50.070;8.232;2023-03-20T11:31:35;17.67;;;17.00;;
15816;SDS011;8009;50.070;8.232;2023-03-20T11:34:09;16.13;;;15.53;;
15816;SDS011;8009;50.070;8.232;2023-03-20T11:36:52;15.03;;;14.43;;
15816;SDS011;8009;50.070;8.232;2023-03-20T11:39:22;14.57;;;14.07;;
15816;SDS011;8009;50.070;8.232;2023-03-20T11:41:54;15.88;;;15.27;;
15816;SDS011;8009;50.070;8.232;2023-03-20T11:44:24;18.27;;;17.57;;
15816;SDS011;8009;50.070;8.232;2023-03-20T11:46:53;18.40;;;17.70;;
15816;SDS011;8009;50.070;8.232;2023-03-20T11:49:27;17.77;;;17.07;;
15816;SDS011;8009;50.070;8.232;2023-03-20T11:52:01;21.00;;;20.20;;
15816;SDS011;8009;50.070;8.232;2023-03-20T11:54:38;16.93;;;16.33;;
15816;SDS011;8009;50.070;8.232;2023-03-20T11:57:25;17.00;;;16.40;;
15816;SDS011;8009;50.070;8.232;2023-03-20T12:00:00;17.50;;;16.83;;
15816;SDS011;8009;50.070;8.232;2023-03-20T12:02:30;15.37;;;14.77;;
15816;SDS011;8009;50.070;8.232;2023-03-20T12:05:00;16.57;;;15.97;;
15816;SDS011;8009;50.070;8.232;2023-03-20T12:07:48;18.90;;;18.20;;
15816;SDS011;8009;50.070;8.232;2023-03-20T12:10:24;17.73;;;17.03;;
15816;SDS011;8009;50.070;8.232;2023-03-20T12:13:02;19.10;;;18.30;;
15816;SDS011;8009;50.070;8.232;2023-03-20T12:15:43;16.47;;;15.83;;
15816;SDS011;8009;50.070;8.232;2023-03-20T12:18:16;17.40;;;16.70;;
15816;SDS011;8009;50.070;8.232;2023-03-20T12:20:53;16.03;;;15.43;;
15816;SDS011;8009;50.070;8.232;2023-03-20T12:23:37;17.10;;;16.50;;
15816;SDS011;8009;50.070;8.232;2023-03-20T12:26:10;16.47;;;15.87;;
15816;SDS011;8009;50.070;8.232;2023-03-20T12:28:41;15.87;;;15.27;;
15816;SDS011;8009;50.070;8.232;2023-03-20T12:31:16;16.43;;;15.83;;
15816;SDS011;8009;50.070;8.232;2023-03-20T12:33:51;18.20;;;17.50;;
15816;SDS011;8009;50.070;8.232;2023-03-20T12:36:28;17.97;;;17.27;;
15816;SDS011;8009;50.070;8.232;2023-03-20T12:39:04;13.80;;;13.30;;
15816;SDS011;8009;50.070;8.232;2023-03-20T12:41:39;12.88;;;12.38;;
15816;SDS011;8009;50.070;8.232;2023-03-20T12:44:18;16.33;;;15.73;;
15816;SDS011;8009;50.070;8.232;2023-03-20T12:46:59;14.73;;;14.20;;
15816;SDS011;8009;50.070;8.232;2023-03-20T12:49:44;19.00;;;18.30;;
15816;SDS011;8009;50.070;8.232;2023-03-20T12:52:22;17.47;;;16.80;;
15816;SDS011;8009;50.070;8.232;2023-03-20T12:58:09;17.43;;;16.73;;
15816;SDS011;8009;50.070;8.232;2023-03-20T13:00:47;16.63;;;16.03;;
15816;SDS011;8009;50.070;8.232;2023-03-20T13:03:29;15.97;;;15.37;;
15816;SDS011;8009;50.070;8.232;2023-03-20T13:06:12;14.83;;;14.30;;
15816;SDS011;8009;50.070;8.232;2023-03-20T13:08:45;20.33;;;19.53;;
15816;SDS011;8009;50.070;8.232;2023-03-20T13:11:30;16.13;;;15.53;;
15816;SDS011;8009;50.070;8.232;2023-03-20T13:14:09;16.43;;;15.83;;
15816;SDS011;8009;50.070;8.232;2023-03-20T13:16:45;18.07;;;17.37;;
15816;SDS011;8009;50.070;8.232;2023-03-20T13:19:21;17.10;;;16.47;;
15816;SDS011;8009;50.070;8.232;2023-03-20T13:21:56;15.80;;;15.20;;
15816;SDS011;8009;50.070;8.232;2023-03-20T13:24:35;18.03;;;17.33;;
15816;SDS011;8009;50.070;8.232;2023-03-20T13:27:14;18.57;;;17.87;;
15816;SDS011;8009;50.070;8.232;2023-03-20T13:29:54;16.23;;;15.63;;
15816;SDS011;8009;50.070;8.232;2023-03-20T13:32:33;16.40;;;15.80;;
15816;SDS011;8009;50.070;8.232;2023-03-20T13:38:07;15.97;;;15.37;;
15816;SDS011;8009;50.070;8.232;2023-03-20T13:40:42;17.17;;;16.50;;
15816;SDS011;8009;50.070;8.232;2023-03-20T13:43:25;16.20;;;15.60;;
15816;SDS011;8009;50.070;8.232;2023-03-20T13:45:58;16.77;;;16.17;;
15816;SDS011;8009;50.070;8.232;2023-03-20T13:48:33;17.13;;;16.53;;
15816;SDS011;8009;50.070;8.232;2023-03-20T13:51:13;16.00;;;15.40;;
15816;SDS011;8009;50.070;8.232;2023-03-20T13:54:05;17.00;;;16.40;;
15816;SDS011;8009;50.070;8.232;2023-03-20T13:56:42;17.47;;;16.80;;
15816;SDS011;8009;50.070;8.232;2023-03-20T13:59:30;15.40;;;14.80;;
15816;SDS011;8009;50.070;8.232;2023-03-20T14:02:32;16.57;;;15.97;;
15816;SDS011;8009;50.070;8.232;2023-03-20T14:05:13;16.90;;;16.30;;
15816;SDS011;8009;50.070;8.232;2023-03-20T14:07:46;17.00;;;16.30;;
15816;SDS011;8009;50.070;8.232;2023-03-20T14:13:04;16.57;;;15.97;;
15816;SDS011;8009;50.070;8.232;2023-03-20T14:15:44;15.33;;;14.73;;
15816;SDS011;8009;50.070;8.232;2023-03-20T14:18:17;14.73;;;14.17;;
15816;SDS011;8009;50.070;8.232;2023-03-20T14:20:52;16.57;;;15.97;;
15816;SDS011;8009;50.070;8.232;2023-03-20T14:23:27;17.87;;;17.17;;
15816;SDS011;8009;50.070;8.232;2023-03-20T14:26:03;20.23;;;19.42;;
15816;SDS011;8009;50.070;8.232;2023-03-20T14:28:47;18.50;;;17.80;;
15816;SDS011;8009;50.070;8.232;2023-03-20T14:31:29;19.40;;;18.70;;
15816;SDS011;8009;50.070;8.232;2023-03-20T14:34:13;20.33;;;19.53;;
15816;SDS011;8009;50.070;8.232;2023-03-20T14:36:45;20.27;;;19.47;;
15816;SDS011;8009;50.070;8.232;2023-03-20T14:39:20;17.43;;;16.77;;
15816;SDS011;8009;50.070;8.232;2023-03-20T14:42:05;18.77;;;18.07;;
15816;SDS011;8009;50.070;8.232;2023-03-20T14:44:49;21.27;;;20.47;;
15816;SDS011;8009;50.070;8.232;2023-03-20T14:47:37;21.33;;;20.53;;
15816;SDS011;8009;50.070;8.232;2023-03-20T14:50:17;18.20;;;17.50;;
15816;SDS011;8009;50.070;8.232;2023-03-20T14:52:52;19.57;;;18.87;;
15816;SDS011;8009;50.070;8.232;2023-03-20T14:55:45;17.53;;;16.83;;
15816;SDS011;8009;50.070;8.232;2023-03-20T15:01:14;21.90;;;21.10;;
15816;SDS011;8009;50.070;8.232;2023-03-20T15:03:55;21.13;;;20.33;;
15816;SDS011;8009;50.070;8.232;2023-03-20T15:06:26;19.20;;;18.50;;
15816;SDS011;8009;50.070;8.232;2023-03-20T15:08:56;23.07;;;22.17;;
15816;SDS011;8009;50.070;8.232;2023-03-20T15:11:26;21.93;;;21.13;;
15816;SDS011;8009;50.070;8.232;2023-03-20T15:13:56;21.73;;;20.93;;
15816;SDS011;8009;50.070;8.232;2023-03-20T15:16:26;20.80;;;20.00;;
15816;SDS011;8009;50.070;8.232;2023-03-20T15:18:58;21.10;;;20.30;;
15816;SDS011;8009;50.070;8.232;2023-03-20T15:21:28;19.17;;;18.47;;
15816;SDS011;8009;50.070;8.232;2023-03-20T15:24:00;20.60;;;19.80;;
15816;SDS011;8009;50.070;8.232;2023-03-20T15:26:31;20.53;;;19.73;;
15816;SDS011;8009;50.070;8.232;2023-03-20T15:29:01;21.33;;;20.50;;